createdAt,value
2023-03-13T00:01:41.840Z,9.22
2023-03-13T00:04:09.101Z,9.19
2023-03-13T00:06:37.492Z,9.23
2023-03-13T00:09:06.588Z,9.29
2023-03-13T00:11:33.826Z,9.19
2023-03-13T00:14:02.599Z,9.23
2023-03-13T00:16:29.779Z,9.35
2023-03-13T00:18:57.731Z,9.34
2023-03-13T00:21:26.479Z,9.40
2023-03-13T00:23:53.384Z,9.43
2023-03-13T00:26:22.887Z,9.37
2023-03-13T00:28:50.871Z,9.33
2023-03-13T00:31:26.571Z,9.34
2023-03-13T00:33:58.504Z,9.31
2023-03-13T00:36:27.394Z,9.26
2023-03-13T00:38:55.072Z,9.28
2023-03-13T00:41:24.165Z,9.26
2023-03-13T00:43:51.614Z,9.37
2023-03-13T00:46:21.141Z,9.20
2023-03-13T00:48:48.220Z,9.29
2023-03-13T00:51:16.403Z,9.26
2023-03-13T00:53:43.034Z,9.28
2023-03-13T00:56:12.101Z,9.23
2023-03-13T00:58:40.568Z,9.30
2023-03-13T01:01:14.294Z,9.26
2023-03-13T01:03:43.334Z,9.34
2023-03-13T01:06:15.781Z,9.29
2023-03-13T01:08:42.572Z,9.30
2023-03-13T01:11:14.922Z,9.42
2023-03-13T01:13:42.226Z,9.29
2023-03-13T01:16:14.165Z,9.31
2023-03-13T01:18:42.925Z,9.28
2023-03-13T01:21:09.526Z,9.41
2023-03-13T01:23:35.941Z,9.40
2023-03-13T01:26:05.346Z,9.46
2023-03-13T01:28:32.316Z,9.49
2023-03-13T01:30:59.859Z,9.50
2023-03-13T01:33:26.439Z,9.50
2023-03-13T01:36:00.702Z,9.48
2023-03-13T01:38:27.146Z,9.40
2023-03-13T01:40:53.674Z,9.49
2023-03-13T01:43:27.157Z,9.44
2023-03-13T01:46:00.645Z,9.43
2023-03-13T01:48:58.787Z,9.47
2023-03-13T01:51:39.503Z,9.47
2023-03-13T01:54:14.666Z,9.51
2023-03-13T01:57:06.111Z,9.46
2023-03-13T01:59:40.527Z,9.47
2023-03-13T02:02:08.050Z,9.40
2023-03-13T02:04:45.818Z,9.28
2023-03-13T02:07:16.864Z,9.17
2023-03-13T02:09:49.263Z,9.20
2023-03-13T02:12:22.277Z,9.10
2023-03-13T02:14:50.425Z,8.86
2023-03-13T02:17:17.791Z,8.74
2023-03-13T02:19:49.972Z,8.60
2023-03-13T02:22:44.061Z,8.45
2023-03-13T02:25:25.747Z,8.61
2023-03-13T02:27:59.165Z,8.43
2023-03-13T02:30:25.665Z,8.54
2023-03-13T02:32:52.238Z,8.51
2023-03-13T02:35:21.603Z,8.37
2023-03-13T02:37:56.229Z,8.26
2023-03-13T02:40:30.090Z,8.22
2023-03-13T02:42:58.851Z,8.27
2023-03-13T02:45:25.388Z,8.30
2023-03-13T02:47:52.021Z,8.17
2023-03-13T02:50:19.274Z,8.23
2023-03-13T02:52:48.956Z,8.37
2023-03-13T02:55:22.505Z,8.32
2023-03-13T02:57:49.097Z,8.38
2023-03-13T03:00:17.664Z,8.49
2023-03-13T03:02:45.229Z,8.37
2023-03-13T03:05:12.911Z,8.39
2023-03-13T03:07:39.587Z,8.36
2023-03-13T03:10:06.813Z,8.38
2023-03-13T03:12:33.277Z,8.40
2023-03-13T03:14:59.738Z,8.44
2023-03-13T03:17:26.189Z,8.32
2023-03-13T03:19:52.624Z,8.37
2023-03-13T03:22:19.094Z,8.44
2023-03-13T03:24:45.604Z,8.39
2023-03-13T03:27:12.091Z,8.39
2023-03-13T03:29:38.511Z,8.46
2023-03-13T03:32:05.236Z,8.45
2023-03-13T03:34:31.716Z,8.41
2023-03-13T03:36:58.343Z,8.33
2023-03-13T03:39:24.815Z,8.24
2023-03-13T03:41:51.256Z,8.22
2023-03-13T03:44:17.679Z,8.21
2023-03-13T03:46:44.137Z,8.42
2023-03-13T03:49:10.537Z,8.42
2023-03-13T03:51:37.000Z,8.45
2023-03-13T03:54:03.570Z,8.39
2023-03-13T03:56:29.967Z,8.51
2023-03-13T03:58:56.425Z,8.54
2023-03-13T04:01:22.899Z,8.71
2023-03-13T04:03:49.419Z,8.80
2023-03-13T04:06:15.835Z,8.81
2023-03-13T04:08:42.346Z,8.84
2023-03-13T04:11:08.953Z,8.87
2023-03-13T04:13:35.384Z,8.88
2023-03-13T04:16:07.280Z,9.05
2023-03-13T04:18:33.790Z,9.04
2023-03-13T04:21:02.423Z,9.05
2023-03-13T04:23:28.868Z,9.07
2023-03-13T04:25:55.309Z,9.19
2023-03-13T04:28:21.755Z,9.18
2023-03-13T04:30:48.329Z,9.27
2023-03-13T04:33:14.833Z,9.28
2023-03-13T04:35:41.336Z,9.33
2023-03-13T04:38:07.781Z,9.36
2023-03-13T04:40:34.184Z,9.36
2023-03-13T04:43:00.617Z,9.37
2023-03-13T04:45:28.057Z,9.33
2023-03-13T04:47:54.607Z,9.39
2023-03-13T04:50:20.996Z,9.47
2023-03-13T04:52:49.517Z,9.45
2023-03-13T04:55:17.106Z,9.46
2023-03-13T04:57:43.603Z,9.41
2023-03-13T05:00:11.527Z,9.40
2023-03-13T05:02:37.967Z,9.43
2023-03-13T05:05:04.852Z,9.45
2023-03-13T05:07:31.576Z,9.43
2023-03-13T05:09:58.046Z,9.46
2023-03-13T05:12:24.541Z,9.49
2023-03-13T05:14:50.973Z,9.53
2023-03-13T05:17:17.736Z,9.54
2023-03-13T05:19:44.228Z,9.55
2023-03-13T05:22:10.704Z,9.50
2023-03-13T05:24:37.135Z,9.61
2023-03-13T05:27:03.781Z,9.60
2023-03-13T05:29:30.209Z,9.61
2023-03-13T05:31:56.700Z,9.66
2023-03-13T05:34:23.182Z,9.66
2023-03-13T05:36:49.794Z,9.59
2023-03-13T05:39:16.384Z,9.66
2023-03-13T05:41:42.799Z,9.66
2023-03-13T05:44:09.288Z,9.77
2023-03-13T05:46:35.870Z,9.77
2023-03-13T05:49:02.377Z,9.85
2023-03-13T05:51:28.781Z,9.82
2023-03-13T05:53:55.287Z,9.93
2023-03-13T05:56:21.743Z,9.96
2023-03-13T05:58:48.210Z,9.96
2023-03-13T06:01:14.983Z,9.98
2023-03-13T06:03:41.574Z,9.92
2023-03-13T06:06:08.073Z,10.09
2023-03-13T06:08:34.515Z,10.16
2023-03-13T06:11:02.035Z,10.23
2023-03-13T06:13:28.896Z,10.14
2023-03-13T06:15:57.914Z,10.21
2023-03-13T06:18:24.883Z,10.33
2023-03-13T06:20:57.178Z,10.27
2023-03-13T06:23:23.718Z,10.32
2023-03-13T06:25:50.170Z,10.37
2023-03-13T06:28:17.015Z,10.32
2023-03-13T06:30:43.847Z,10.38
2023-03-13T06:33:10.995Z,10.54
2023-03-13T06:35:55.167Z,10.47
2023-03-13T06:38:24.680Z,10.46
2023-03-13T06:40:51.210Z,10.44
2023-03-13T06:43:17.985Z,10.58
2023-03-13T06:45:44.520Z,10.49
2023-03-13T06:48:11.119Z,10.43
2023-03-13T06:50:39.164Z,10.48
2023-03-13T06:53:05.692Z,10.43
2023-03-13T06:55:32.433Z,10.52
2023-03-13T06:57:59.235Z,10.52
2023-03-13T07:00:25.734Z,10.49
2023-03-13T07:02:52.199Z,10.58
2023-03-13T07:05:18.681Z,10.61
2023-03-13T07:07:45.188Z,10.63
2023-03-13T07:10:12.185Z,10.66
2023-03-13T07:12:38.726Z,10.69
2023-03-13T07:15:06.183Z,10.67
2023-03-13T07:17:32.880Z,10.73
2023-03-13T07:19:59.475Z,10.75
2023-03-13T07:22:25.924Z,10.72
2023-03-13T07:24:52.505Z,10.74
2023-03-13T07:27:20.990Z,10.72
2023-03-13T07:29:47.585Z,10.79
2023-03-13T07:32:14.148Z,11.01
2023-03-13T07:34:40.632Z,11.08
2023-03-13T07:37:07.194Z,11.21
2023-03-13T07:39:33.697Z,11.08
2023-03-13T07:42:00.133Z,11.29
2023-03-13T07:44:26.761Z,11.33
2023-03-13T07:46:53.195Z,11.55
2023-03-13T07:49:19.633Z,11.27
2023-03-13T07:51:48.115Z,11.52
2023-03-13T07:54:14.690Z,11.67
2023-03-13T07:56:41.201Z,11.67
2023-03-13T07:59:08.382Z,11.63
2023-03-13T08:01:35.706Z,11.58
2023-03-13T08:04:02.497Z,11.67
2023-03-13T08:06:33.754Z,11.64
2023-03-13T08:09:01.100Z,11.73
2023-03-13T08:11:28.877Z,11.83
2023-03-13T08:13:57.036Z,11.94
2023-03-13T08:16:26.547Z,11.74
2023-03-13T08:18:55.862Z,11.79
2023-03-13T08:21:27.744Z,11.96
2023-03-13T08:23:59.613Z,12.06
2023-03-13T08:26:28.748Z,12.40
2023-03-13T08:28:57.854Z,12.26
2023-03-13T08:31:29.948Z,12.33
2023-03-13T08:33:56.711Z,12.35
2023-03-13T08:36:26.707Z,12.34
2023-03-13T08:38:54.622Z,12.38
2023-03-13T08:41:26.177Z,12.56
2023-03-13T08:43:53.383Z,12.77
2023-03-13T08:46:20.194Z,12.67
2023-03-13T08:48:54.614Z,12.73
2023-03-13T08:51:24.142Z,12.67
2023-03-13T08:53:51.558Z,12.77
2023-03-13T08:56:20.648Z,12.72
2023-03-13T08:58:52.468Z,12.51
2023-03-13T09:01:20.060Z,12.47
2023-03-13T09:03:46.742Z,12.63
2023-03-13T09:06:13.564Z,12.89
2023-03-13T09:08:41.164Z,13.00
2023-03-13T09:11:13.761Z,12.97
2023-03-13T09:13:42.971Z,13.01
2023-03-13T09:16:12.286Z,13.20
2023-03-13T09:18:39.471Z,13.42
2023-03-13T09:21:12.903Z,13.44
2023-03-13T09:23:39.498Z,13.42
2023-03-13T09:26:06.609Z,13.44
2023-03-13T09:28:34.048Z,13.65
2023-03-13T09:31:09.610Z,13.67
2023-03-13T09:33:36.731Z,13.78
2023-03-13T09:36:04.291Z,13.94
2023-03-13T09:38:31.282Z,13.91
2023-03-13T09:41:06.518Z,13.78
2023-03-13T09:43:47.797Z,13.89
2023-03-13T09:46:45.006Z,14.04
2023-03-13T09:49:35.317Z,14.23
2023-03-13T09:52:14.641Z,14.60
2023-03-13T09:54:50.144Z,14.83
2023-03-13T09:57:24.226Z,14.55
2023-03-13T10:00:00.309Z,14.30
2023-03-13T10:02:36.502Z,14.49
2023-03-13T10:05:24.656Z,14.39
2023-03-13T10:07:55.703Z,14.91
2023-03-13T10:10:37.751Z,15.20
2023-03-13T10:13:17.785Z,14.25
2023-03-13T10:15:56.188Z,14.57
2023-03-13T10:18:27.603Z,15.28
2023-03-13T10:20:59.469Z,16.34
2023-03-13T10:23:46.558Z,15.15
2023-03-13T10:26:23.370Z,15.69
2023-03-13T10:28:51.764Z,16.67
2023-03-13T10:31:23.374Z,16.98
2023-03-13T10:33:49.861Z,16.23
2023-03-13T10:36:16.455Z,14.73
2023-03-13T10:38:50.529Z,15.61
2023-03-13T10:41:33.302Z,17.78
2023-03-13T10:44:08.248Z,16.79
2023-03-13T10:46:40.076Z,15.29
2023-03-13T10:49:16.681Z,15.61
2023-03-13T10:51:57.836Z,15.70
2023-03-13T10:54:29.815Z,14.59
2023-03-13T10:57:19.530Z,16.07
2023-03-13T10:59:48.796Z,16.94
2023-03-13T11:02:38.929Z,16.62
2023-03-13T11:05:24.424Z,16.89
2023-03-13T11:07:52.085Z,16.37
2023-03-13T11:10:26.804Z,17.14
2023-03-13T11:12:55.587Z,16.33
2023-03-13T11:15:29.470Z,16.14
2023-03-13T11:18:05.051Z,16.32
2023-03-13T11:20:35.688Z,16.63
2023-03-13T11:23:24.945Z,15.17
2023-03-13T11:26:07.692Z,14.63
2023-03-13T11:28:48.412Z,14.08
2023-03-13T11:31:23.366Z,13.90
2023-03-13T11:34:23.973Z,13.38
2023-03-13T11:37:03.892Z,13.23
2023-03-13T11:40:17.955Z,13.03
2023-03-13T11:43:25.845Z,13.05
2023-03-13T11:46:31.071Z,12.87
2023-03-13T11:49:16.031Z,13.13
2023-03-13T11:52:01.713Z,12.98
2023-03-13T11:54:48.600Z,12.99
2023-03-13T11:57:32.278Z,13.18
2023-03-13T12:00:22.759Z,12.92
2023-03-13T12:02:56.140Z,12.90
2023-03-13T12:05:25.278Z,12.89
2023-03-13T12:08:02.551Z,12.98
2023-03-13T12:10:34.738Z,12.87
2023-03-13T12:13:04.093Z,12.87
2023-03-13T12:15:37.969Z,12.85
2023-03-13T12:18:30.384Z,12.74
2023-03-13T12:21:04.374Z,12.78
2023-03-13T12:23:39.676Z,12.84
2023-03-13T12:26:15.637Z,12.66
2023-03-13T12:29:06.393Z,12.84
2023-03-13T12:31:50.752Z,13.14
2023-03-13T12:34:29.112Z,13.10
2023-03-13T12:37:06.807Z,13.02
2023-03-13T12:39:47.772Z,12.96
2023-03-13T12:42:45.899Z,13.19
2023-03-13T12:45:21.718Z,13.08
2023-03-13T12:47:57.338Z,13.05
2023-03-13T12:50:54.503Z,13.17
2023-03-13T12:53:42.932Z,13.10
2023-03-13T12:56:34.577Z,13.38
2023-03-13T12:59:20.737Z,13.52
2023-03-13T13:01:52.362Z,13.78
2023-03-13T13:04:23.558Z,13.71
2023-03-13T13:06:51.618Z,13.87
2023-03-13T13:09:23.644Z,13.94
2023-03-13T13:11:52.415Z,13.83
2023-03-13T13:14:18.945Z,13.90
2023-03-13T13:16:56.408Z,14.15
2023-03-13T13:19:25.645Z,14.03
2023-03-13T13:22:30.815Z,14.13
2023-03-13T13:24:59.416Z,14.36
2023-03-13T13:27:49.360Z,14.36
2023-03-13T13:30:18.620Z,14.11
2023-03-13T13:32:50.278Z,14.09
2023-03-13T13:35:25.821Z,14.00
2023-03-13T13:37:53.246Z,13.77
2023-03-13T13:40:28.941Z,13.64
2023-03-13T13:43:01.169Z,13.75
2023-03-13T13:45:37.670Z,13.76
2023-03-13T13:48:16.701Z,13.98
2023-03-13T13:51:11.468Z,14.34
2023-03-13T13:53:59.668Z,14.36
2023-03-13T13:56:29.341Z,14.31
2023-03-13T13:59:05.813Z,14.36
2023-03-13T14:01:33.568Z,14.12
2023-03-13T14:04:43.672Z,14.28
2023-03-13T14:07:36.139Z,14.55
2023-03-13T14:10:33.976Z,14.39
2023-03-13T14:13:02.333Z,14.40
2023-03-13T14:15:31.317Z,14.38
2023-03-13T14:18:00.298Z,14.38
2023-03-13T14:20:37.395Z,14.33
2023-03-13T14:23:07.884Z,14.19
2023-03-13T14:25:46.378Z,14.23
2023-03-13T14:28:18.795Z,14.17
2023-03-13T14:30:47.014Z,14.22
2023-03-13T14:33:13.721Z,14.17
2023-03-13T14:35:41.927Z,14.20
2023-03-13T14:38:17.671Z,14.02
2023-03-13T14:40:44.432Z,14.11
2023-03-13T14:43:26.079Z,13.96
2023-03-13T14:45:52.862Z,13.60
2023-03-13T14:48:39.735Z,13.32
2023-03-13T14:51:16.524Z,13.45
2023-03-13T14:54:00.667Z,13.19
2023-03-13T14:56:42.991Z,13.04
2023-03-13T14:59:23.782Z,12.90
2023-03-13T15:02:12.602Z,12.88
2023-03-13T15:05:30.724Z,12.84
2023-03-13T15:07:57.620Z,12.88
2023-03-13T15:10:32.008Z,12.86
2023-03-13T15:13:13.732Z,12.97
2023-03-13T15:15:40.177Z,12.98
2023-03-13T15:18:19.821Z,12.91
2023-03-13T15:21:17.245Z,12.86
2023-03-13T15:24:01.715Z,12.95
2023-03-13T15:26:29.421Z,12.89
2023-03-13T15:28:56.069Z,12.84
2023-03-13T15:31:27.515Z,12.79
2023-03-13T15:33:57.912Z,12.80
2023-03-13T15:36:27.010Z,12.69
2023-03-13T15:38:54.070Z,12.74
2023-03-13T15:41:22.616Z,12.67
2023-03-13T15:43:52.615Z,12.72
2023-03-13T15:46:20.608Z,12.75
2023-03-13T15:48:47.477Z,12.75
2023-03-13T15:51:18.872Z,12.73
2023-03-13T15:53:46.137Z,12.74
2023-03-13T15:56:34.640Z,12.78
2023-03-13T15:59:01.682Z,12.83
2023-03-13T16:01:28.534Z,12.80
2023-03-13T16:03:55.056Z,12.74
2023-03-13T16:06:31.310Z,12.88
2023-03-13T16:09:00.099Z,12.88
2023-03-13T16:11:27.965Z,12.89
2023-03-13T16:13:54.512Z,13.02
2023-03-13T16:16:36.975Z,13.13
2023-03-13T16:19:04.284Z,13.18
2023-03-13T16:21:34.671Z,13.11
2023-03-13T16:24:01.828Z,13.22
2023-03-13T16:26:31.152Z,13.17
2023-03-13T16:28:58.226Z,13.17
2023-03-13T16:31:30.648Z,13.32
2023-03-13T16:33:58.421Z,13.21
2023-03-13T16:36:31.282Z,13.21
2023-03-13T16:38:59.450Z,13.24
2023-03-13T16:41:27.714Z,13.22
2023-03-13T16:43:55.353Z,13.23
2023-03-13T16:46:27.130Z,13.28
2023-03-13T16:48:53.748Z,13.37
2023-03-13T16:51:23.175Z,13.34
2023-03-13T16:53:51.412Z,13.51
2023-03-13T16:56:30.243Z,13.30
2023-03-13T16:58:58.343Z,13.30
2023-03-13T17:01:26.025Z,13.23
2023-03-13T17:03:53.135Z,13.22
2023-03-13T17:06:22.971Z,13.09
2023-03-13T17:08:49.926Z,13.11
2023-03-13T17:11:19.312Z,13.12
2023-03-13T17:13:48.134Z,13.12
2023-03-13T17:16:18.279Z,13.17
2023-03-13T17:18:47.383Z,13.12
2023-03-13T17:21:17.577Z,13.08
2023-03-13T17:23:44.884Z,13.04
2023-03-13T17:26:17.572Z,13.01
2023-03-13T17:28:45.490Z,12.99
2023-03-13T17:31:12.637Z,12.95
2023-03-13T17:33:40.739Z,12.95
2023-03-13T17:36:20.852Z,12.86
2023-03-13T17:38:49.343Z,12.90
2023-03-13T17:41:19.157Z,12.79
2023-03-13T17:43:45.655Z,12.74
2023-03-13T17:46:23.675Z,12.74
2023-03-13T17:48:52.513Z,12.74
2023-03-13T17:51:23.548Z,12.76
2023-03-13T17:53:51.210Z,12.72
2023-03-13T17:56:23.749Z,12.68
2023-03-13T17:58:52.388Z,12.59
2023-03-13T18:01:21.655Z,12.68
2023-03-13T18:03:49.519Z,12.74
2023-03-13T18:06:20.324Z,12.70
2023-03-13T18:08:48.746Z,12.70
2023-03-13T18:11:17.209Z,12.65
2023-03-13T18:13:45.707Z,12.70
2023-03-13T18:16:37.646Z,12.62
2023-03-13T18:19:15.806Z,12.64
2023-03-13T18:21:44.462Z,12.64
2023-03-13T18:24:12.585Z,12.63
2023-03-13T18:26:41.505Z,12.67
2023-03-13T18:29:14.272Z,12.73
2023-03-13T18:31:43.593Z,12.72
2023-03-13T18:34:11.532Z,12.76
2023-03-13T18:36:38.633Z,12.69
2023-03-13T18:39:06.192Z,12.73
2023-03-13T18:41:33.535Z,12.70
2023-03-13T18:44:01.761Z,12.55
2023-03-13T18:46:31.541Z,12.47
2023-03-13T18:48:58.349Z,12.46
2023-03-13T18:51:26.632Z,12.44
2023-03-13T18:53:54.975Z,12.47
2023-03-13T18:56:30.973Z,12.40
2023-03-13T18:58:58.054Z,12.34
2023-03-13T19:01:30.058Z,12.18
2023-03-13T19:03:57.497Z,11.93
2023-03-13T19:06:27.636Z,11.80
2023-03-13T19:08:57.049Z,11.54
2023-03-13T19:11:25.966Z,11.49
2023-03-13T19:13:52.552Z,11.45
2023-03-13T19:16:29.222Z,11.44
2023-03-13T19:18:57.022Z,11.42
2023-03-13T19:21:31.378Z,11.44
2023-03-13T19:23:57.816Z,11.40
2023-03-13T19:26:33.409Z,11.47
2023-03-13T19:28:59.954Z,11.44
2023-03-13T19:31:26.936Z,11.57
2023-03-13T19:33:54.319Z,11.44
2023-03-13T19:36:23.655Z,11.56
2023-03-13T19:38:50.655Z,11.68
2023-03-13T19:41:17.240Z,11.64
2023-03-13T19:43:43.833Z,11.71
2023-03-13T19:46:27.708Z,11.74
2023-03-13T19:48:59.740Z,11.83
2023-03-13T19:51:27.891Z,11.90
2023-03-13T19:53:55.467Z,11.91
2023-03-13T19:56:27.465Z,11.88
2023-03-13T19:59:12.735Z,11.90
2023-03-13T20:01:39.210Z,11.83
2023-03-13T20:04:05.684Z,11.82
2023-03-13T20:06:34.398Z,11.79
2023-03-13T20:09:04.192Z,11.73
2023-03-13T20:11:31.322Z,11.68
2023-03-13T20:13:57.974Z,11.73
2023-03-13T20:16:27.545Z,11.57
2023-03-13T20:18:57.565Z,11.70
2023-03-13T20:21:27.914Z,11.51
2023-03-13T20:23:54.409Z,11.60
2023-03-13T20:26:21.458Z,11.44
2023-03-13T20:28:51.968Z,11.37
2023-03-13T20:31:23.994Z,11.48
2023-03-13T20:33:50.716Z,11.34
2023-03-13T20:36:19.741Z,11.22
2023-03-13T20:38:47.141Z,11.03
2023-03-13T20:41:13.914Z,11.04
2023-03-13T20:43:40.394Z,10.94
2023-03-13T20:46:09.755Z,10.70
2023-03-13T20:48:39.082Z,10.79
2023-03-13T20:51:07.689Z,10.75
2023-03-13T20:53:39.039Z,10.87
2023-03-13T20:56:07.357Z,10.83
2023-03-13T20:58:34.970Z,10.78
2023-03-13T21:01:02.821Z,10.77
2023-03-13T21:03:31.702Z,10.70
2023-03-13T21:05:58.196Z,10.66
2023-03-13T21:08:24.673Z,10.59
2023-03-13T21:10:51.258Z,10.52
2023-03-13T21:13:17.701Z,10.49
2023-03-13T21:15:44.229Z,10.44
2023-03-13T21:18:10.819Z,10.46
2023-03-13T21:20:38.818Z,10.43
2023-03-13T21:23:05.265Z,10.49
2023-03-13T21:25:31.711Z,10.49
2023-03-13T21:27:58.254Z,10.41
2023-03-13T21:30:24.741Z,10.46
2023-03-13T21:32:51.242Z,10.45
2023-03-13T21:35:17.942Z,10.49
2023-03-13T21:37:44.791Z,10.44
2023-03-13T21:40:12.286Z,10.46
2023-03-13T21:42:38.849Z,10.49
2023-03-13T21:45:07.411Z,10.44
2023-03-13T21:47:37.047Z,10.57
2023-03-13T21:50:07.072Z,10.46
2023-03-13T21:52:40.659Z,10.51
2023-03-13T21:55:10.739Z,10.52
2023-03-13T21:57:37.257Z,10.42
2023-03-13T22:00:08.171Z,10.47
2023-03-13T22:02:35.394Z,10.56
2023-03-13T22:05:03.067Z,10.45
2023-03-13T22:07:30.851Z,10.48
2023-03-13T22:09:57.956Z,10.39
2023-03-13T22:12:25.577Z,10.29
2023-03-13T22:14:52.849Z,10.31
2023-03-13T22:20:00.160Z,10.27
2023-03-13T22:22:26.709Z,10.27
2023-03-13T22:24:54.289Z,10.15
2023-03-13T22:27:23.306Z,10.15
2023-03-13T22:29:50.155Z,10.09
2023-03-13T22:32:16.869Z,10.06
2023-03-13T22:34:46.175Z,10.07
2023-03-13T22:37:12.861Z,10.09
2023-03-13T22:39:39.586Z,10.04
2023-03-13T22:42:06.523Z,10.03
2023-03-13T22:44:33.195Z,10.02
2023-03-13T22:46:59.623Z,10.04
2023-03-13T22:49:26.154Z,9.99
2023-03-13T22:51:52.613Z,9.92
2023-03-13T22:54:19.058Z,9.93
2023-03-13T22:56:45.514Z,9.96
2023-03-13T22:59:11.903Z,9.95
2023-03-13T23:01:38.333Z,10.01
2023-03-13T23:04:04.770Z,9.89
2023-03-13T23:06:31.240Z,9.86
2023-03-13T23:08:57.662Z,9.77
2023-03-13T23:11:24.517Z,9.75
2023-03-13T23:13:51.052Z,9.71
2023-03-13T23:16:17.616Z,9.76
2023-03-13T23:18:44.270Z,9.69
2023-03-13T23:21:13.225Z,9.72
2023-03-13T23:23:40.784Z,9.60
2023-03-13T23:26:09.944Z,9.64
2023-03-13T23:28:37.678Z,9.58
2023-03-13T23:31:13.224Z,9.62
2023-03-13T23:33:40.089Z,9.63
2023-03-13T23:36:08.400Z,9.64
2023-03-13T23:38:35.213Z,9.61
2023-03-13T23:41:13.082Z,9.65
2023-03-13T23:43:39.751Z,9.65
2023-03-13T23:46:14.520Z,9.62
2023-03-13T23:48:41.027Z,9.66
2023-03-13T23:51:07.897Z,9.64
2023-03-13T23:53:38.833Z,9.68
2023-03-13T23:56:05.889Z,9.74
2023-03-13T23:58:32.459Z,9.72
